createdAt,value
2022-08-19T00:01:52.917Z,0.55
2022-08-19T00:04:24.290Z,0.63
2022-08-19T00:06:53.501Z,0.90
2022-08-19T00:09:23.981Z,0.73
2022-08-19T00:11:53.062Z,0.65
2022-08-19T00:14:22.936Z,0.60
2022-08-19T00:16:55.350Z,0.60
2022-08-19T00:19:24.724Z,0.73
2022-08-19T00:21:53.153Z,0.65
2022-08-19T00:24:21.398Z,0.60
2022-08-19T00:26:49.623Z,0.70
2022-08-19T00:29:20.511Z,1.02
2022-08-19T00:31:50.645Z,0.73
2022-08-19T00:34:20.462Z,0.80
2022-08-19T00:36:49.433Z,0.52
2022-08-19T00:39:19.183Z,0.65
2022-08-19T00:41:49.853Z,0.80
2022-08-19T00:44:21.406Z,0.70
2022-08-19T00:46:58.181Z,0.82
2022-08-19T00:49:33.753Z,0.70
2022-08-19T00:52:06.597Z,0.88
2022-08-19T00:54:35.417Z,1.00
2022-08-19T00:57:07.364Z,1.27
2022-08-19T00:59:58.799Z,1.15
2022-08-19T01:02:28.236Z,1.13
2022-08-19T01:04:58.274Z,1.55
2022-08-19T01:07:26.865Z,1.02
2022-08-19T01:09:55.764Z,1.15
2022-08-19T01:12:24.513Z,1.15
2022-08-19T01:14:53.572Z,1.20
2022-08-19T01:17:22.583Z,1.08
2022-08-19T01:19:50.723Z,1.10
2022-08-19T01:22:33.435Z,1.30
2022-08-19T01:25:02.557Z,1.15
2022-08-19T01:27:43.211Z,0.90
2022-08-19T01:30:17.063Z,0.80
2022-08-19T01:32:45.333Z,0.60
2022-08-19T01:35:15.136Z,0.80
2022-08-19T01:37:47.693Z,0.73
2022-08-19T01:40:17.270Z,0.85
2022-08-19T01:42:45.513Z,0.47
2022-08-19T01:45:13.713Z,0.38
2022-08-19T01:47:42.332Z,0.50
2022-08-19T01:50:12.390Z,0.38
2022-08-19T01:52:41.392Z,0.20
2022-08-19T01:55:14.143Z,0.30
2022-08-19T01:57:44.943Z,0.22
2022-08-19T02:00:17.093Z,0.20
2022-08-19T02:02:45.373Z,0.20
2022-08-19T02:05:14.483Z,0.30
2022-08-19T02:07:43.285Z,0.10
2022-08-19T02:10:17.233Z,0.13
2022-08-19T02:12:45.778Z,0.10
2022-08-19T02:15:16.122Z,0.20
2022-08-19T02:17:44.663Z,0.05
2022-08-19T02:20:14.482Z,0.10
2022-08-19T02:22:43.573Z,0.13
2022-08-19T02:25:15.854Z,0.10
2022-08-19T02:27:44.953Z,0.13
2022-08-19T02:30:20.068Z,0.20
2022-08-19T02:32:48.672Z,0.17
2022-08-19T02:35:17.454Z,0.40
2022-08-19T02:38:03.271Z,0.30
2022-08-19T02:40:35.448Z,0.20
2022-08-19T02:43:03.961Z,0.10
2022-08-19T02:45:34.304Z,0.10
2022-08-19T02:48:02.553Z,0.10
2022-08-19T02:50:40.043Z,0.30
2022-08-19T02:53:19.831Z,0.10
2022-08-19T02:55:50.013Z,0.40
2022-08-19T02:58:19.345Z,0.60
2022-08-19T03:00:50.531Z,0.50
2022-08-19T03:03:19.711Z,0.50
2022-08-19T03:05:56.468Z,0.50
2022-08-19T03:08:26.845Z,0.40
2022-08-19T03:10:56.553Z,0.35
2022-08-19T03:13:25.421Z,0.40
2022-08-19T03:15:53.543Z,0.35
2022-08-19T03:18:23.153Z,0.50
2022-08-19T03:20:55.593Z,0.43
2022-08-19T03:23:25.282Z,0.32
2022-08-19T03:26:05.699Z,0.32
2022-08-19T03:28:51.227Z,0.50
2022-08-19T03:31:44.084Z,0.47
2022-08-19T03:34:18.292Z,0.50
2022-08-19T03:36:47.470Z,0.47
2022-08-19T03:39:16.575Z,0.32
2022-08-19T03:41:48.485Z,0.43
2022-08-19T03:44:21.674Z,0.40
2022-08-19T03:46:52.282Z,0.40
2022-08-19T03:49:21.743Z,0.70
2022-08-19T03:51:57.873Z,0.32
2022-08-19T03:54:27.402Z,0.40
2022-08-19T03:56:57.960Z,0.50
2022-08-19T03:59:31.052Z,0.35
2022-08-19T04:02:02.275Z,0.30
2022-08-19T04:04:31.857Z,0.40
2022-08-19T04:07:00.472Z,0.47
2022-08-19T04:09:28.998Z,0.40
2022-08-19T04:11:59.528Z,0.45
2022-08-19T04:14:32.002Z,0.30
2022-08-19T04:17:01.322Z,0.50
2022-08-19T04:19:31.825Z,0.57
2022-08-19T04:22:00.532Z,0.52
2022-08-19T04:24:30.703Z,0.43
2022-08-19T04:26:59.142Z,0.55
2022-08-19T04:29:28.802Z,0.40
2022-08-19T04:31:58.633Z,0.57
2022-08-19T04:34:29.602Z,0.47
2022-08-19T04:36:59.910Z,0.60
2022-08-19T04:39:45.005Z,0.52
2022-08-19T04:42:31.524Z,0.57
2022-08-19T04:45:01.772Z,0.50
2022-08-19T04:47:47.546Z,0.65
2022-08-19T04:50:20.933Z,0.55
2022-08-19T04:52:49.108Z,0.73
2022-08-19T04:55:17.632Z,0.70
2022-08-19T04:57:46.002Z,0.90
2022-08-19T05:00:16.783Z,0.80
2022-08-19T05:02:45.043Z,0.50
2022-08-19T05:05:13.526Z,0.57
2022-08-19T05:07:42.105Z,0.75
2022-08-19T05:10:10.792Z,0.73
2022-08-19T05:12:39.080Z,0.65
2022-08-19T05:15:10.542Z,0.88
2022-08-19T05:17:59.974Z,0.70
2022-08-19T05:20:45.762Z,0.77
2022-08-19T05:23:21.880Z,0.75
2022-08-19T05:25:51.244Z,0.85
2022-08-19T05:28:19.533Z,1.23
2022-08-19T05:30:49.074Z,0.80
2022-08-19T05:33:18.973Z,1.05
2022-08-19T05:35:47.162Z,0.70
2022-08-19T05:38:15.252Z,0.73
2022-08-19T05:40:48.852Z,0.55
2022-08-19T05:43:17.590Z,0.68
2022-08-19T05:45:46.695Z,0.60
2022-08-19T05:48:15.694Z,0.70
2022-08-19T05:50:46.383Z,0.90
2022-08-19T05:53:15.544Z,0.60
2022-08-19T05:55:43.715Z,0.70
2022-08-19T05:58:12.302Z,1.17
2022-08-19T06:00:41.104Z,0.95
2022-08-19T06:03:12.835Z,1.08
2022-08-19T06:05:50.209Z,0.95
2022-08-19T06:08:34.321Z,0.88
2022-08-19T06:11:17.563Z,1.48
2022-08-19T06:13:51.522Z,1.23
2022-08-19T06:16:23.208Z,1.42
2022-08-19T06:18:53.582Z,1.45
2022-08-19T06:21:23.432Z,1.92
2022-08-19T06:23:54.093Z,1.85
2022-08-19T06:26:23.144Z,1.30
2022-08-19T06:28:51.371Z,1.23
2022-08-19T06:31:22.883Z,1.35
2022-08-19T06:33:51.903Z,2.20
2022-08-19T06:36:21.951Z,1.30
2022-08-19T06:38:55.863Z,1.73
2022-08-19T06:41:24.093Z,0.95
2022-08-19T06:43:53.979Z,1.08
2022-08-19T06:46:22.303Z,1.38
2022-08-19T06:48:54.293Z,1.33
2022-08-19T06:51:24.911Z,1.33
2022-08-19T06:53:56.715Z,0.80
2022-08-19T06:56:31.941Z,1.90
2022-08-19T06:59:00.773Z,1.17
2022-08-19T07:01:29.123Z,0.90
2022-08-19T07:03:58.174Z,1.20
2022-08-19T07:06:43.273Z,1.40
2022-08-19T07:09:18.642Z,0.82
2022-08-19T07:11:48.782Z,1.38
2022-08-19T07:14:20.288Z,1.23
2022-08-19T07:16:50.007Z,1.20
2022-08-19T07:19:19.523Z,1.20
2022-08-19T07:21:49.015Z,1.42
2022-08-19T07:24:20.593Z,0.93
2022-08-19T07:26:51.672Z,1.63
2022-08-19T07:29:24.195Z,1.67
2022-08-19T07:31:57.188Z,1.02
2022-08-19T07:34:26.921Z,1.73
2022-08-19T07:36:56.572Z,1.33
2022-08-19T07:39:29.603Z,1.80
2022-08-19T07:41:59.923Z,1.05
2022-08-19T07:44:28.258Z,0.90
2022-08-19T07:46:58.841Z,1.27
2022-08-19T07:49:27.113Z,1.05
2022-08-19T07:51:58.100Z,1.33
2022-08-19T07:54:29.231Z,1.17
2022-08-19T07:56:57.713Z,1.10
2022-08-19T07:59:26.543Z,1.73
2022-08-19T08:01:55.024Z,1.23
2022-08-19T08:04:41.231Z,1.35
2022-08-19T08:07:31.552Z,1.40
2022-08-19T08:10:03.360Z,1.13
2022-08-19T08:12:36.373Z,1.42
2022-08-19T08:15:12.727Z,1.88
2022-08-19T08:17:49.044Z,1.15
2022-08-19T08:20:18.855Z,1.23
2022-08-19T08:23:06.020Z,0.88
2022-08-19T08:25:37.454Z,1.20
2022-08-19T08:28:09.692Z,1.27
2022-08-19T08:30:45.195Z,1.35
2022-08-19T08:33:13.962Z,0.70
2022-08-19T08:35:44.293Z,0.98
2022-08-19T08:38:13.171Z,0.82
2022-08-19T08:40:46.983Z,1.00
2022-08-19T08:43:24.281Z,0.73
2022-08-19T08:45:57.402Z,1.48
2022-08-19T08:48:33.591Z,1.08
2022-08-19T08:51:07.103Z,1.25
2022-08-19T08:53:41.854Z,0.82
2022-08-19T08:56:14.090Z,1.40
2022-08-19T08:58:56.518Z,1.10
2022-08-19T09:01:25.007Z,1.35
2022-08-19T09:04:03.099Z,1.20
2022-08-19T09:09:19.002Z,0.60
2022-08-19T09:11:58.840Z,1.38
2022-08-19T09:14:54.324Z,0.73
2022-08-19T09:17:32.100Z,0.93
2022-08-19T09:20:05.943Z,1.00
2022-08-19T09:22:37.993Z,0.90
2022-08-19T09:25:07.312Z,0.65
2022-08-19T09:27:42.524Z,0.88
2022-08-19T09:30:25.673Z,0.77
2022-08-19T09:32:54.762Z,1.02
2022-08-19T09:35:24.398Z,1.10
2022-08-19T09:37:57.766Z,0.85
2022-08-19T09:40:30.125Z,1.10
2022-08-19T09:43:01.593Z,0.73
2022-08-19T09:45:29.791Z,0.93
2022-08-19T09:47:58.954Z,1.13
2022-08-19T09:50:27.233Z,0.75
2022-08-19T09:52:57.543Z,0.93
2022-08-19T09:55:32.070Z,1.17
2022-08-19T09:58:03.650Z,0.65
2022-08-19T10:00:33.022Z,1.27
2022-08-19T10:03:01.321Z,0.75
2022-08-19T10:05:48.438Z,1.02
2022-08-19T10:08:18.551Z,0.85
2022-08-19T10:10:49.707Z,1.00
2022-08-19T10:13:26.450Z,0.98
2022-08-19T10:15:57.252Z,0.63
2022-08-19T10:18:26.810Z,0.80
2022-08-19T10:21:08.712Z,0.80
2022-08-19T10:23:38.413Z,1.17
2022-08-19T10:26:07.602Z,1.17
2022-08-19T10:28:39.293Z,0.93
2022-08-19T10:31:09.241Z,1.13
2022-08-19T10:33:53.466Z,1.05
2022-08-19T10:36:24.582Z,0.80
2022-08-19T10:38:58.465Z,1.42
2022-08-19T10:41:29.792Z,0.85
2022-08-19T10:44:04.120Z,1.35
2022-08-19T10:46:34.102Z,0.73
2022-08-19T10:49:03.522Z,1.17
2022-08-19T10:51:49.559Z,1.40
2022-08-19T10:54:31.226Z,0.60
2022-08-19T10:57:00.594Z,1.00
2022-08-19T10:59:35.776Z,1.27
2022-08-19T11:02:07.690Z,0.90
2022-08-19T11:04:35.985Z,0.98
2022-08-19T11:07:04.611Z,0.95
2022-08-19T11:09:34.215Z,0.73
2022-08-19T11:12:04.978Z,0.73
2022-08-19T11:14:35.802Z,1.10
2022-08-19T11:17:05.762Z,1.00
2022-08-19T11:19:34.552Z,1.02
2022-08-19T11:22:04.359Z,0.93
2022-08-19T11:24:34.152Z,0.60
2022-08-19T11:27:05.809Z,0.68
2022-08-19T11:29:35.832Z,1.25
2022-08-19T11:32:07.700Z,1.15
2022-08-19T11:34:36.352Z,0.90
2022-08-19T11:37:06.690Z,0.90
2022-08-19T11:39:38.067Z,0.63
2022-08-19T11:42:29.003Z,1.20
2022-08-19T11:44:58.662Z,0.88
2022-08-19T11:47:27.194Z,0.82
2022-08-19T11:49:55.467Z,0.75
2022-08-19T11:52:23.573Z,1.17
2022-08-19T11:54:51.883Z,0.73
2022-08-19T11:57:20.811Z,1.02
2022-08-19T11:59:51.422Z,1.42
2022-08-19T12:02:22.604Z,0.75
2022-08-19T12:04:51.013Z,0.52
2022-08-19T12:07:19.908Z,1.02
2022-08-19T12:09:48.826Z,1.80
2022-08-19T12:12:17.893Z,0.80
2022-08-19T12:14:47.544Z,0.98
2022-08-19T12:17:16.208Z,0.80
2022-08-19T12:19:45.772Z,0.80
2022-08-19T12:22:13.811Z,0.82
2022-08-19T12:24:41.911Z,0.63
2022-08-19T12:27:12.876Z,1.00
2022-08-19T12:29:42.436Z,0.90
2022-08-19T12:32:12.094Z,1.13
2022-08-19T12:34:41.420Z,0.65
2022-08-19T12:37:11.943Z,1.02
2022-08-19T12:39:43.419Z,1.65
2022-08-19T12:42:12.812Z,0.90
2022-08-19T12:44:42.704Z,0.82
2022-08-19T12:47:12.482Z,0.52
2022-08-19T12:49:53.548Z,0.65
2022-08-19T12:52:26.211Z,0.47
2022-08-19T12:54:56.222Z,0.70
2022-08-19T12:57:32.530Z,0.98
2022-08-19T13:00:04.879Z,0.65
2022-08-19T13:02:38.485Z,1.10
2022-08-19T13:05:12.299Z,0.65
2022-08-19T13:07:44.695Z,0.70
2022-08-19T13:10:16.375Z,0.80
2022-08-19T13:12:45.612Z,0.70
2022-08-19T13:15:15.176Z,0.85
2022-08-19T13:17:44.132Z,0.60
2022-08-19T13:20:13.534Z,1.05
2022-08-19T13:22:43.314Z,0.77
2022-08-19T13:25:12.362Z,0.47
2022-08-19T13:27:41.919Z,1.00
2022-08-19T13:30:30.172Z,0.90
2022-08-19T13:33:16.290Z,0.47
2022-08-19T13:35:48.792Z,0.73
2022-08-19T13:38:21.377Z,0.85
2022-08-19T13:40:51.425Z,0.75
2022-08-19T13:43:23.841Z,0.77
2022-08-19T13:45:57.418Z,0.93
2022-08-19T13:48:27.912Z,0.70
2022-08-19T13:50:57.145Z,1.27
2022-08-19T13:53:26.701Z,0.73
2022-08-19T13:55:55.451Z,0.80
2022-08-19T13:58:24.581Z,0.60
2022-08-19T14:00:52.892Z,0.50
2022-08-19T14:03:21.152Z,0.60
2022-08-19T14:05:49.385Z,0.73
2022-08-19T14:08:19.195Z,0.90
2022-08-19T14:10:49.554Z,0.45
2022-08-19T14:13:22.163Z,0.50
2022-08-19T14:15:51.312Z,0.85
2022-08-19T14:18:20.402Z,0.93
2022-08-19T14:20:48.672Z,1.15
2022-08-19T14:23:16.722Z,0.70
2022-08-19T14:25:45.721Z,0.55
2022-08-19T14:28:15.231Z,0.60
2022-08-19T14:30:45.476Z,0.60
2022-08-19T14:33:15.233Z,0.45
2022-08-19T14:35:46.532Z,0.95
2022-08-19T14:38:18.743Z,0.50
2022-08-19T14:40:58.234Z,0.98
2022-08-19T14:43:27.773Z,0.80
2022-08-19T14:45:57.952Z,0.60
2022-08-19T14:48:29.034Z,0.52
2022-08-19T14:50:57.635Z,0.75
2022-08-19T14:53:25.670Z,0.60
2022-08-19T14:55:53.802Z,0.60
2022-08-19T14:58:29.026Z,0.57
2022-08-19T15:01:01.066Z,0.60
2022-08-19T15:03:29.962Z,0.38
2022-08-19T15:05:59.115Z,0.70
2022-08-19T15:08:29.242Z,0.57
2022-08-19T15:10:58.512Z,0.52
2022-08-19T15:13:28.282Z,1.00
2022-08-19T15:15:56.473Z,0.50
2022-08-19T15:18:26.690Z,0.80
2022-08-19T15:20:55.943Z,0.77
2022-08-19T15:23:24.532Z,0.65
2022-08-19T15:25:55.840Z,0.68
2022-08-19T15:28:25.403Z,0.50
2022-08-19T15:30:54.833Z,0.80
2022-08-19T15:33:23.021Z,0.90
2022-08-19T15:35:54.164Z,0.60
2022-08-19T15:38:23.875Z,0.38
2022-08-19T15:40:51.952Z,0.57
2022-08-19T15:43:22.384Z,0.80
2022-08-19T15:45:50.602Z,0.70
2022-08-19T15:48:18.922Z,0.90
2022-08-19T15:50:46.914Z,0.82
2022-08-19T15:53:17.152Z,0.68
2022-08-19T15:55:48.530Z,1.23
2022-08-19T15:58:34.753Z,1.25
2022-08-19T16:01:24.009Z,0.90
2022-08-19T16:04:14.520Z,0.85
2022-08-19T16:06:47.000Z,0.93
2022-08-19T16:09:17.083Z,0.82
2022-08-19T16:11:56.149Z,0.77
2022-08-19T16:14:26.524Z,0.95
2022-08-19T16:16:56.803Z,1.15
2022-08-19T16:19:26.315Z,0.93
2022-08-19T16:21:56.482Z,0.80
2022-08-19T16:24:29.844Z,1.25
2022-08-19T16:29:34.406Z,1.08
2022-08-19T16:32:12.650Z,0.90
2022-08-19T16:34:42.305Z,0.88
2022-08-19T16:37:11.063Z,1.60
2022-08-19T16:39:41.230Z,1.02
2022-08-19T16:42:14.041Z,1.02
2022-08-19T16:44:45.055Z,1.00
2022-08-19T16:47:15.373Z,0.73
2022-08-19T16:49:54.572Z,0.90
2022-08-19T16:52:27.133Z,0.70
2022-08-19T16:54:56.775Z,0.75
2022-08-19T16:57:25.040Z,1.60
2022-08-19T16:59:53.881Z,1.00
2022-08-19T17:02:23.674Z,1.38
2022-08-19T17:04:59.321Z,1.83
2022-08-19T17:07:28.129Z,2.72
2022-08-19T17:09:58.385Z,3.88
2022-08-19T17:12:35.466Z,2.22
2022-08-19T17:15:08.328Z,2.25
2022-08-19T17:17:37.154Z,2.47
2022-08-19T17:20:06.480Z,1.67
2022-08-19T17:22:35.900Z,2.40
2022-08-19T17:25:05.990Z,1.40
2022-08-19T17:27:34.222Z,1.67
2022-08-19T17:30:03.014Z,2.03
2022-08-19T17:32:35.112Z,1.30
2022-08-19T17:35:04.753Z,1.27
2022-08-19T17:37:34.272Z,0.98
2022-08-19T17:40:03.244Z,1.52
2022-08-19T17:42:32.735Z,1.60
2022-08-19T17:45:00.992Z,2.22
2022-08-19T17:47:29.943Z,1.80
2022-08-19T17:49:58.242Z,2.00
2022-08-19T17:52:26.643Z,2.25
2022-08-19T17:54:54.783Z,2.70
2022-08-19T17:57:22.932Z,2.97
2022-08-19T17:59:52.652Z,5.47
2022-08-19T18:02:22.055Z,1.63
2022-08-19T18:04:50.740Z,0.60
2022-08-19T18:07:21.530Z,0.50
2022-08-19T18:09:52.983Z,0.80
2022-08-19T18:12:24.962Z,0.73
2022-08-19T18:14:54.402Z,0.50
2022-08-19T18:17:23.391Z,0.50
2022-08-19T18:19:51.973Z,0.73
2022-08-19T18:22:26.679Z,0.90
2022-08-19T18:24:55.742Z,0.68
2022-08-19T18:27:24.032Z,0.32
2022-08-19T18:29:52.553Z,0.57
2022-08-19T18:32:24.060Z,0.63
2022-08-19T18:34:52.532Z,0.60
2022-08-19T18:37:21.111Z,0.57
2022-08-19T18:40:07.148Z,0.80
2022-08-19T18:42:53.061Z,0.52
2022-08-19T18:45:38.792Z,0.60
2022-08-19T18:48:27.997Z,0.90
2022-08-19T18:50:58.113Z,1.02
2022-08-19T18:53:28.423Z,0.80
2022-08-19T18:55:56.870Z,0.70
2022-08-19T18:58:33.751Z,0.65
2022-08-19T19:01:09.136Z,0.70
2022-08-19T19:03:39.942Z,0.90
2022-08-19T19:06:08.634Z,0.88
2022-08-19T19:08:37.442Z,0.82
2022-08-19T19:11:06.203Z,0.80
2022-08-19T19:13:35.549Z,0.85
2022-08-19T19:16:04.122Z,0.68
2022-08-19T19:18:33.385Z,0.85
2022-08-19T19:21:02.953Z,0.52
2022-08-19T19:23:31.174Z,0.82
2022-08-19T19:26:00.529Z,0.45
2022-08-19T19:28:28.870Z,0.65
2022-08-19T19:30:59.175Z,0.90
2022-08-19T19:33:27.953Z,0.57
2022-08-19T19:35:56.542Z,0.63
2022-08-19T19:38:26.241Z,0.80
2022-08-19T19:40:54.482Z,1.45
2022-08-19T19:43:22.872Z,0.70
2022-08-19T19:45:52.083Z,0.82
2022-08-19T19:48:20.582Z,0.47
2022-08-19T19:50:54.293Z,0.52
2022-08-19T19:53:27.569Z,1.00
2022-08-19T19:55:59.802Z,0.80
2022-08-19T19:58:29.325Z,0.52
2022-08-19T20:00:59.472Z,0.57
2022-08-19T20:03:29.979Z,0.35
2022-08-19T20:05:59.594Z,0.68
2022-08-19T20:08:46.812Z,0.80
2022-08-19T20:11:25.924Z,0.50
2022-08-19T20:13:54.349Z,0.60
2022-08-19T20:16:23.062Z,0.35
2022-08-19T20:18:51.292Z,0.88
2022-08-19T20:21:25.851Z,0.50
2022-08-19T20:24:09.172Z,0.50
2022-08-19T20:26:38.882Z,0.52
2022-08-19T20:29:37.901Z,0.70
2022-08-19T20:31:59.132Z,0.73
2022-08-19T20:34:28.747Z,0.40
2022-08-19T20:36:57.064Z,0.75
2022-08-19T20:39:26.592Z,0.65
2022-08-19T20:41:56.369Z,0.57
2022-08-19T20:44:25.913Z,0.43
2022-08-19T20:46:56.085Z,0.45
2022-08-19T20:49:27.470Z,0.43
2022-08-19T20:51:56.737Z,0.57
2022-08-19T20:54:26.977Z,0.60
2022-08-19T20:56:56.064Z,0.50
2022-08-19T20:59:25.887Z,0.40
2022-08-19T21:01:55.582Z,0.57
2022-08-19T21:04:24.452Z,0.57
2022-08-19T21:06:52.502Z,0.40
2022-08-19T21:09:20.813Z,0.55
2022-08-19T21:11:51.212Z,0.50
2022-08-19T21:14:19.782Z,0.20
2022-08-19T21:16:49.261Z,0.60
2022-08-19T21:19:22.022Z,0.55
2022-08-19T21:21:52.142Z,0.40
2022-08-19T21:24:20.541Z,0.65
2022-08-19T21:26:51.399Z,0.50
2022-08-19T21:29:20.022Z,0.60
2022-08-19T21:31:49.005Z,0.68
2022-08-19T21:34:17.623Z,0.82
2022-08-19T21:36:45.895Z,0.30
2022-08-19T21:39:14.322Z,0.45
2022-08-19T21:41:43.813Z,0.50
2022-08-19T21:44:13.452Z,0.75
2022-08-19T21:46:42.113Z,0.57
2022-08-19T21:49:10.153Z,0.88
2022-08-19T21:51:38.373Z,0.38
2022-08-19T21:54:07.154Z,0.88
2022-08-19T21:56:42.203Z,0.47
2022-08-19T21:59:10.343Z,1.05
2022-08-19T22:01:39.822Z,1.60
2022-08-19T22:04:08.143Z,0.70
2022-08-19T22:06:36.562Z,0.60
2022-08-19T22:09:05.332Z,1.38
2022-08-19T22:11:33.922Z,0.70
2022-08-19T22:14:03.885Z,0.80
2022-08-19T22:16:33.812Z,0.82
2022-08-19T22:19:03.132Z,0.80
2022-08-19T22:21:39.631Z,0.70
2022-08-19T22:24:09.833Z,0.82
2022-08-19T22:26:38.031Z,1.08
2022-08-19T22:29:07.110Z,0.60
2022-08-19T22:31:35.833Z,0.50
2022-08-19T22:34:06.058Z,0.68
2022-08-19T22:36:34.662Z,0.52
2022-08-19T22:39:03.652Z,0.95
2022-08-19T22:41:33.659Z,0.70
2022-08-19T22:44:02.042Z,0.55
2022-08-19T22:46:34.317Z,0.82
2022-08-19T22:49:02.614Z,0.85
2022-08-19T22:51:49.893Z,0.68
2022-08-19T22:54:18.523Z,0.70
2022-08-19T22:56:46.813Z,0.63
2022-08-19T22:59:15.002Z,0.63
2022-08-19T23:01:43.239Z,0.63
2022-08-19T23:04:11.949Z,0.68
2022-08-19T23:06:42.337Z,0.77
2022-08-19T23:09:16.670Z,0.90
2022-08-19T23:11:45.714Z,0.77
2022-08-19T23:14:14.375Z,0.70
2022-08-19T23:16:42.896Z,0.60
2022-08-19T23:19:11.852Z,0.80
2022-08-19T23:21:42.782Z,0.75
2022-08-19T23:24:12.184Z,0.70
2022-08-19T23:27:02.341Z,0.52
2022-08-19T23:29:48.531Z,0.95
2022-08-19T23:32:17.453Z,1.05
2022-08-19T23:34:46.171Z,0.57
2022-08-19T23:37:15.694Z,0.90
2022-08-19T23:39:45.391Z,0.90
2022-08-19T23:42:13.865Z,0.68
2022-08-19T23:44:52.089Z,0.52
2022-08-19T23:47:22.006Z,0.60
2022-08-19T23:49:50.616Z,0.70
2022-08-19T23:52:20.762Z,0.50
2022-08-19T23:54:49.061Z,0.60
2022-08-19T23:57:17.472Z,0.57
2022-08-19T23:59:46.231Z,0.60
